CZ-0015 weather

Teaching Hospital, Clinic Karim - Roof Heliport
Hradec Králové, Hradec Králové Region, Czechia

Public forecast

Using degrees Celsius for public forecast. Weather courtesy of forecast.io.

METAR (pilot weather report)

Closest report is Pardubice Airport, 11.6 nm (21.5 km) SSW. Retrieved 2019/09/16 03:00 UTC (2 minutes ago):

LKPD 160300Z 22002KT CAVOK 12/11 Q1018 RMK BLU

TAF (pilot weather forecast)

Closest forecast is Pardubice Airport, 11.6 nm (21.5 km) SSW. Retrieved 2019/09/16 00:00 UTC (3 hours ago):

TAF LKPD 152300Z 1600/1700 27005KT CAVOK BECMG 1606/1608 BKN040 TEMPO 1615/1700 RA BKN025